createdAt,value
2017-08-08T00:02:05.832Z,17.70
2017-08-08T00:04:33.355Z,17.90
2017-08-08T00:07:01.036Z,17.97
2017-08-08T00:09:28.579Z,17.57
2017-08-08T00:11:56.093Z,17.83
2017-08-08T00:14:23.604Z,18.37
2017-08-08T00:16:51.141Z,19.20
2017-08-08T00:19:18.657Z,19.67
2017-08-08T00:21:46.175Z,19.87
2017-08-08T00:24:13.841Z,18.10
2017-08-08T00:26:41.350Z,18.97
2017-08-08T00:29:08.862Z,19.33
2017-08-08T00:31:36.411Z,17.73
2017-08-08T00:34:03.922Z,17.07
2017-08-08T00:36:31.439Z,17.00
2017-08-08T00:38:58.974Z,18.60
2017-08-08T00:41:26.486Z,19.23
2017-08-08T00:43:54.395Z,18.97
2017-08-08T00:46:21.927Z,19.80
2017-08-08T00:48:49.473Z,20.10
2017-08-08T00:51:17.385Z,19.37
2017-08-08T00:53:44.922Z,19.80
2017-08-08T00:56:12.444Z,19.77
2017-08-08T00:58:39.955Z,19.00
2017-08-08T01:01:07.500Z,19.67
2017-08-08T01:03:35.014Z,18.43
2017-08-08T01:06:02.531Z,18.90
2017-08-08T01:08:30.072Z,19.27
2017-08-08T01:10:57.979Z,20.00
2017-08-08T01:13:25.482Z,19.30
2017-08-08T01:15:53.010Z,19.20
2017-08-08T01:18:20.519Z,20.20
2017-08-08T01:20:48.426Z,18.87
2017-08-08T01:23:15.963Z,15.47
2017-08-08T01:25:43.479Z,15.70
2017-08-08T01:28:10.995Z,13.90
2017-08-08T01:30:38.538Z,16.03
2017-08-08T01:33:06.054Z,16.20
2017-08-08T01:35:33.567Z,14.50
2017-08-08T01:38:01.111Z,14.23
2017-08-08T01:40:29.035Z,13.13
2017-08-08T01:42:56.563Z,14.23
2017-08-08T01:45:24.124Z,13.27
2017-08-08T01:47:51.640Z,14.13
2017-08-08T01:50:19.156Z,14.00
2017-08-08T01:52:46.712Z,12.87
2017-08-08T01:55:14.232Z,13.03
2017-08-08T01:57:41.739Z,13.20
2017-08-08T02:00:09.279Z,13.40
2017-08-08T02:02:36.794Z,13.80
2017-08-08T02:05:04.316Z,12.73
2017-08-08T02:07:31.867Z,13.40
2017-08-08T02:09:59.379Z,13.70
2017-08-08T02:12:26.897Z,13.50
2017-08-08T02:14:54.431Z,14.47
2017-08-08T02:17:22.339Z,13.40
2017-08-08T02:19:49.856Z,12.53
2017-08-08T02:22:17.396Z,14.13
2017-08-08T02:24:45.339Z,14.70
2017-08-08T02:27:12.879Z,14.40
2017-08-08T02:29:40.416Z,15.53
2017-08-08T02:32:07.948Z,21.57
2017-08-08T02:34:35.463Z,22.83
2017-08-08T02:37:03.009Z,22.10
2017-08-08T02:39:30.526Z,25.50
2017-08-08T02:41:58.044Z,21.20
2017-08-08T02:44:25.579Z,21.77
2017-08-08T02:46:53.114Z,22.10
2017-08-08T02:49:20.626Z,24.67
2017-08-08T02:51:48.158Z,21.50
2017-08-08T02:54:15.675Z,19.67
2017-08-08T02:56:43.196Z,22.20
2017-08-08T02:59:10.731Z,21.30
2017-08-08T03:01:38.640Z,22.90
2017-08-08T03:04:06.151Z,19.23
2017-08-08T03:06:34.096Z,19.67
2017-08-08T03:09:01.615Z,20.63
2017-08-08T03:11:29.131Z,20.60
2017-08-08T03:13:56.671Z,18.80
2017-08-08T03:16:24.187Z,19.43
2017-08-08T03:18:51.712Z,18.57
2017-08-08T03:21:19.683Z,15.43
2017-08-08T03:23:47.208Z,17.03
2017-08-08T03:26:14.723Z,16.90
2017-08-08T03:28:42.262Z,16.50
2017-08-08T03:31:09.776Z,16.10
2017-08-08T03:33:37.290Z,17.37
2017-08-08T03:36:05.222Z,18.07
2017-08-08T03:38:32.737Z,15.80
2017-08-08T03:41:00.648Z,17.03
2017-08-08T03:43:28.196Z,18.43
2017-08-08T03:45:55.715Z,18.70
2017-08-08T03:48:23.623Z,17.63
2017-08-08T03:50:51.170Z,17.43
2017-08-08T03:53:18.690Z,18.33
2017-08-08T03:55:46.224Z,17.93
2017-08-08T03:58:13.776Z,20.73
2017-08-08T04:00:41.411Z,22.67
2017-08-08T04:03:08.971Z,24.43
2017-08-08T04:05:36.496Z,23.87
2017-08-08T04:08:04.031Z,22.47
2017-08-08T04:10:31.570Z,21.60
2017-08-08T04:12:59.083Z,22.70
2017-08-08T04:15:26.985Z,22.93
2017-08-08T04:17:54.527Z,22.70
2017-08-08T04:20:22.439Z,20.53
2017-08-08T04:22:49.955Z,22.00
2017-08-08T04:25:17.887Z,20.80
2017-08-08T04:27:45.398Z,20.93
2017-08-08T04:30:12.924Z,21.77
2017-08-08T04:32:40.458Z,19.63
2017-08-08T04:35:07.992Z,20.60
2017-08-08T04:37:35.503Z,19.60
2017-08-08T04:40:03.038Z,19.90
2017-08-08T04:42:30.552Z,19.40
2017-08-08T04:44:58.469Z,19.90
2017-08-08T04:47:26.011Z,19.23
2017-08-08T04:49:53.535Z,20.20
2017-08-08T04:52:21.504Z,20.00
2017-08-08T04:54:49.055Z,20.40
2017-08-08T04:57:16.970Z,19.80
2017-08-08T04:59:44.490Z,19.00
2017-08-08T05:02:12.039Z,19.60
2017-08-08T05:04:39.555Z,19.77
2017-08-08T05:07:07.078Z,17.87
2017-08-08T05:09:34.620Z,18.90
2017-08-08T05:12:02.136Z,18.60
2017-08-08T05:14:29.645Z,19.27
2017-08-08T05:16:57.583Z,18.10
2017-08-08T05:19:25.110Z,17.30
2017-08-08T05:21:52.627Z,17.93
2017-08-08T05:24:20.124Z,17.67
2017-08-08T05:26:47.662Z,17.57
2017-08-08T05:29:15.582Z,18.30
2017-08-08T05:31:43.119Z,17.80
2017-08-08T05:34:10.631Z,18.53
2017-08-08T05:36:38.145Z,18.57
2017-08-08T05:39:05.683Z,16.87
2017-08-08T05:41:33.591Z,17.07
2017-08-08T05:44:01.102Z,17.37
2017-08-08T05:46:28.703Z,18.00
2017-08-08T05:48:56.218Z,16.10
2017-08-08T05:51:24.128Z,18.63
2017-08-08T05:53:51.994Z,18.87
2017-08-08T05:56:19.501Z,18.30
2017-08-08T05:58:47.011Z,17.80
2017-08-08T06:01:14.550Z,18.27
2017-08-08T06:03:42.455Z,19.10
2017-08-08T06:06:09.981Z,17.23
2017-08-08T06:08:37.518Z,17.30
2017-08-08T06:11:05.030Z,18.13
2017-08-08T06:13:32.537Z,17.63
2017-08-08T06:16:00.074Z,16.50
2017-08-08T06:18:27.764Z,17.57
2017-08-08T06:20:55.284Z,17.13
2017-08-08T06:23:22.822Z,16.10
2017-08-08T06:25:50.331Z,16.60
2017-08-08T06:28:17.842Z,17.77
2017-08-08T06:30:45.379Z,18.03
2017-08-08T06:33:13.307Z,17.90
2017-08-08T06:35:40.823Z,16.10
2017-08-08T06:38:08.363Z,17.57
2017-08-08T06:40:36.280Z,15.83
2017-08-08T06:43:03.787Z,17.60
2017-08-08T06:45:31.331Z,16.90
2017-08-08T06:47:58.849Z,18.67
2017-08-08T06:50:26.366Z,17.17
2017-08-08T06:52:53.904Z,18.20
2017-08-08T06:55:21.406Z,18.83
2017-08-08T06:57:49.302Z,20.37
2017-08-08T07:00:16.839Z,17.87
2017-08-08T07:02:44.347Z,18.83
2017-08-08T07:05:11.858Z,17.30
2017-08-08T07:07:39.395Z,18.03
2017-08-08T07:10:06.911Z,16.83
2017-08-08T07:12:34.423Z,16.30
2017-08-08T07:15:02.578Z,17.10
2017-08-08T07:17:30.099Z,16.60
2017-08-08T07:19:57.607Z,16.30
2017-08-08T07:22:25.159Z,16.87
2017-08-08T07:24:52.670Z,17.70
2017-08-08T07:27:20.190Z,15.53
2017-08-08T07:29:47.723Z,17.50
2017-08-08T07:32:15.236Z,15.30
2017-08-08T07:34:43.583Z,16.13
2017-08-08T07:37:11.131Z,16.53
2017-08-08T07:39:38.643Z,13.77
2017-08-08T07:42:06.167Z,16.10
2017-08-08T07:44:33.698Z,15.77
2017-08-08T07:47:01.215Z,14.87
2017-08-08T07:49:28.727Z,15.63
2017-08-08T07:51:56.274Z,14.90
2017-08-08T07:54:23.783Z,14.00
2017-08-08T07:56:51.295Z,14.50
2017-08-08T07:59:18.830Z,15.07
2017-08-08T08:01:46.368Z,13.40
2017-08-08T08:04:13.878Z,14.10
2017-08-08T08:06:41.395Z,13.70
2017-08-08T08:09:09.335Z,13.43
2017-08-08T08:11:36.852Z,13.50
2017-08-08T08:14:04.363Z,12.30
2017-08-08T08:16:31.898Z,12.47
2017-08-08T08:18:59.415Z,14.20
2017-08-08T08:21:26.932Z,13.17
2017-08-08T08:23:54.466Z,13.10
2017-08-08T08:26:21.983Z,12.90
2017-08-08T08:28:49.495Z,12.97
2017-08-08T08:31:17.033Z,12.37
2017-08-08T08:33:44.543Z,11.50
2017-08-08T08:36:12.055Z,11.03
2017-08-08T08:38:39.586Z,11.53
2017-08-08T08:41:07.099Z,11.77
2017-08-08T08:43:34.606Z,9.90
2017-08-08T08:46:02.143Z,10.17
2017-08-08T08:48:29.652Z,10.63
2017-08-08T08:50:57.171Z,10.20
2017-08-08T08:53:25.113Z,10.83
2017-08-08T08:55:52.629Z,9.53
2017-08-08T08:58:20.147Z,12.10
2017-08-08T09:00:47.707Z,13.87
2017-08-08T09:03:15.227Z,12.23
2017-08-08T09:05:42.743Z,11.40
2017-08-08T09:08:10.670Z,9.53
2017-08-08T09:10:38.182Z,10.37
2017-08-08T09:13:06.095Z,10.00
2017-08-08T09:15:33.626Z,10.53
2017-08-08T09:18:01.133Z,12.07
2017-08-08T09:20:28.644Z,11.70
2017-08-08T09:22:56.174Z,11.23
2017-08-08T09:25:23.682Z,12.97
2017-08-08T09:27:51.199Z,12.13
2017-08-08T09:30:19.135Z,14.60
2017-08-08T09:32:46.648Z,15.17
2017-08-08T09:35:14.162Z,16.60
2017-08-08T09:37:41.698Z,16.00
2017-08-08T09:40:09.207Z,15.07
2017-08-08T09:42:37.114Z,13.30
2017-08-08T09:45:04.647Z,13.77
2017-08-08T09:47:32.551Z,14.13
2017-08-08T09:50:00.062Z,13.80
2017-08-08T09:52:27.595Z,13.50
2017-08-08T09:54:55.106Z,13.87
2017-08-08T09:57:22.628Z,12.60
2017-08-08T09:59:50.170Z,15.23
2017-08-08T10:02:17.684Z,13.20
2017-08-08T10:04:45.591Z,12.80
2017-08-08T10:07:13.130Z,11.80
2017-08-08T10:09:40.643Z,12.50
2017-08-08T10:12:08.156Z,11.23
2017-08-08T10:14:35.720Z,11.63
2017-08-08T10:17:03.234Z,12.23
2017-08-08T10:19:31.154Z,12.30
2017-08-08T10:21:58.714Z,11.47
2017-08-08T10:24:26.228Z,11.17
2017-08-08T10:26:54.140Z,11.17
2017-08-08T10:29:21.679Z,10.63
2017-08-08T10:31:49.199Z,11.30
2017-08-08T10:34:16.711Z,11.70
2017-08-08T10:36:44.255Z,10.10
2017-08-08T10:39:12.154Z,10.40
2017-08-08T10:41:39.658Z,13.23
2017-08-08T10:44:07.199Z,11.73
2017-08-08T10:46:34.702Z,11.40
2017-08-08T10:49:02.615Z,10.70
2017-08-08T10:51:30.160Z,11.30
2017-08-08T10:53:57.675Z,10.33
2017-08-08T10:56:25.582Z,11.80
2017-08-08T10:58:53.118Z,12.27
2017-08-08T11:01:21.028Z,11.00
2017-08-08T11:03:48.547Z,10.80
2017-08-08T11:06:16.489Z,10.57
2017-08-08T11:08:44.008Z,11.20
2017-08-08T11:11:11.524Z,10.23
2017-08-08T11:13:39.455Z,10.50
2017-08-08T11:16:06.967Z,9.67
2017-08-08T11:18:34.498Z,10.13
2017-08-08T11:21:02.043Z,11.10
2017-08-08T11:23:29.562Z,10.70
2017-08-08T11:25:57.077Z,11.50
2017-08-08T11:28:24.615Z,12.80
2017-08-08T11:30:52.130Z,12.53
2017-08-08T11:33:19.643Z,11.07
2017-08-08T11:35:47.178Z,12.53
2017-08-08T11:38:14.690Z,10.90
2017-08-08T11:40:42.198Z,10.50
2017-08-08T11:43:09.740Z,8.60
2017-08-08T11:45:37.259Z,7.73
2017-08-08T11:48:04.853Z,7.33
2017-08-08T11:50:32.395Z,6.90
2017-08-08T11:52:59.907Z,7.30
2017-08-08T11:55:27.410Z,6.93
2017-08-08T11:57:54.946Z,6.80
2017-08-08T12:00:22.452Z,7.07
2017-08-08T12:02:50.358Z,7.00
2017-08-08T12:05:17.907Z,7.00
2017-08-08T12:07:45.411Z,6.90
2017-08-08T12:10:12.915Z,6.70
2017-08-08T12:12:40.447Z,6.40
2017-08-08T12:15:07.956Z,7.90
2017-08-08T12:17:35.476Z,7.60
2017-08-08T12:20:03.016Z,7.17
2017-08-08T12:22:30.544Z,7.43
2017-08-08T12:24:58.051Z,7.57
2017-08-08T12:27:25.974Z,7.23
2017-08-08T12:29:53.474Z,7.40
2017-08-08T12:32:20.979Z,6.50
2017-08-08T12:34:48.514Z,8.13
2017-08-08T12:37:16.413Z,6.90
2017-08-08T12:39:43.919Z,6.60
2017-08-08T12:42:11.467Z,6.20
2017-08-08T12:44:38.967Z,6.10
2017-08-08T12:47:06.475Z,4.93
2017-08-08T12:49:34.019Z,6.20
2017-08-08T12:52:01.527Z,5.53
2017-08-08T12:54:29.033Z,5.20
2017-08-08T12:56:56.563Z,5.63
2017-08-08T12:59:24.470Z,5.30
2017-08-08T13:01:51.970Z,6.40
2017-08-08T13:04:19.498Z,6.10
2017-08-08T13:06:47.010Z,6.57
2017-08-08T13:09:14.912Z,6.60
2017-08-08T13:11:42.447Z,6.10
2017-08-08T13:14:09.960Z,5.63
2017-08-08T13:16:37.472Z,4.73
2017-08-08T13:19:05.007Z,4.90
2017-08-08T13:21:32.923Z,4.90
2017-08-08T13:24:00.439Z,4.77
2017-08-08T13:26:28.367Z,5.13
2017-08-08T13:28:55.880Z,5.47
2017-08-08T13:31:23.783Z,5.80
2017-08-08T13:33:51.312Z,5.87
2017-08-08T13:36:19.223Z,6.23
2017-08-08T13:38:46.734Z,6.07
2017-08-08T13:41:14.676Z,8.07
2017-08-08T13:43:42.192Z,7.00
2017-08-08T13:46:09.736Z,5.97
2017-08-08T13:48:37.266Z,6.60
2017-08-08T13:51:04.777Z,7.17
2017-08-08T13:53:32.278Z,6.57
2017-08-08T13:55:59.819Z,7.97
2017-08-08T13:58:27.332Z,7.17
2017-08-08T14:00:55.243Z,7.63
2017-08-08T14:03:22.779Z,6.67
2017-08-08T14:05:50.291Z,6.43
2017-08-08T14:08:17.808Z,5.60
2017-08-08T14:10:45.339Z,5.70
2017-08-08T14:13:12.852Z,5.90
2017-08-08T14:15:40.363Z,6.30
2017-08-08T14:18:07.899Z,5.93
2017-08-08T14:20:35.407Z,5.73
2017-08-08T14:23:02.915Z,5.70
2017-08-08T14:25:30.456Z,6.07
2017-08-08T14:27:57.967Z,5.10
2017-08-08T14:30:25.471Z,4.63
2017-08-08T14:32:53.005Z,4.63
2017-08-08T14:35:20.524Z,4.90
2017-08-08T14:37:48.438Z,6.10
2017-08-08T14:40:15.975Z,4.70
2017-08-08T14:42:43.875Z,4.30
2017-08-08T14:45:11.374Z,4.93
2017-08-08T14:47:38.911Z,5.40
2017-08-08T14:50:06.419Z,5.10
2017-08-08T14:52:34.324Z,5.20
2017-08-08T14:55:01.859Z,5.30
2017-08-08T14:57:29.390Z,4.90
2017-08-08T14:59:57.309Z,5.70
2017-08-08T15:02:24.839Z,6.20
2017-08-08T15:04:52.771Z,6.07
2017-08-08T15:07:20.274Z,5.30
2017-08-08T15:09:47.807Z,4.90
2017-08-08T15:12:15.324Z,5.07
2017-08-08T15:14:42.836Z,4.80
2017-08-08T15:17:10.767Z,4.77
2017-08-08T15:19:38.279Z,4.70
2017-08-08T15:22:05.786Z,5.47
2017-08-08T15:24:33.315Z,4.93
2017-08-08T15:27:00.828Z,5.33
2017-08-08T15:29:28.335Z,5.47
2017-08-08T15:31:55.884Z,5.00
2017-08-08T15:34:23.399Z,5.47
2017-08-08T15:36:50.923Z,7.80
2017-08-08T15:39:18.468Z,6.87
2017-08-08T15:41:45.995Z,9.00
2017-08-08T15:44:13.512Z,15.93
2017-08-08T15:46:41.056Z,5.37
2017-08-08T15:49:08.570Z,5.13
2017-08-08T15:51:36.078Z,5.10
2017-08-08T15:54:03.606Z,4.23
2017-08-08T15:56:31.113Z,5.20
2017-08-08T15:58:58.584Z,4.90
2017-08-08T16:01:26.144Z,4.23
2017-08-08T16:03:53.664Z,4.53
2017-08-08T16:06:21.179Z,4.13
2017-08-08T16:08:48.719Z,4.00
2017-08-08T16:11:16.227Z,4.10
2017-08-08T16:13:43.732Z,4.40
2017-08-08T16:16:11.259Z,4.33
2017-08-08T16:18:39.200Z,4.07
2017-08-08T16:21:06.702Z,3.87
2017-08-08T16:23:34.236Z,3.90
2017-08-08T16:26:02.153Z,3.97
2017-08-08T16:28:29.655Z,4.13
2017-08-08T16:30:57.183Z,4.57
2017-08-08T16:33:24.702Z,4.80
2017-08-08T16:35:52.243Z,4.40
2017-08-08T16:38:19.753Z,4.43
2017-08-08T16:40:47.262Z,4.27
2017-08-08T16:43:14.789Z,4.30
2017-08-08T16:45:42.299Z,3.50
2017-08-08T16:48:09.811Z,4.27
2017-08-08T16:50:37.354Z,4.53
2017-08-08T16:53:04.858Z,4.73
2017-08-08T16:55:32.389Z,4.00
2017-08-08T16:57:59.911Z,4.07
2017-08-08T17:00:27.498Z,4.00
2017-08-08T17:02:55.031Z,4.40
2017-08-08T17:05:22.582Z,4.03
2017-08-08T17:07:50.699Z,3.80
2017-08-08T17:10:18.243Z,3.80
2017-08-08T17:12:45.747Z,3.90
2017-08-08T17:15:13.283Z,4.13
2017-08-08T17:17:40.787Z,4.10
2017-08-08T17:20:08.852Z,4.33
2017-08-08T17:22:36.382Z,3.97
2017-08-08T17:25:03.891Z,4.00
2017-08-08T17:27:31.800Z,4.20
2017-08-08T17:29:59.335Z,4.37
2017-08-08T17:32:26.838Z,4.73
2017-08-08T17:34:54.369Z,4.60
2017-08-08T17:37:21.870Z,4.40
2017-08-08T17:39:49.377Z,4.03
2017-08-08T17:42:16.908Z,4.37
2017-08-08T17:44:44.814Z,4.30
2017-08-08T17:47:12.327Z,4.30
2017-08-08T17:49:39.866Z,4.20
2017-08-08T17:52:07.370Z,4.20
2017-08-08T17:54:34.874Z,4.50
2017-08-08T17:57:02.407Z,4.70
2017-08-08T17:59:29.919Z,5.10
2017-08-08T18:01:57.423Z,4.67
2017-08-08T18:04:24.975Z,4.40
2017-08-08T18:06:52.492Z,4.33
2017-08-08T18:09:20.004Z,4.77
2017-08-08T18:11:47.534Z,4.20
2017-08-08T18:14:15.056Z,4.90
2017-08-08T18:16:42.566Z,4.40
2017-08-08T18:19:10.500Z,4.77
2017-08-08T18:21:38.002Z,4.60
2017-08-08T18:24:05.526Z,5.27
2017-08-08T18:26:33.059Z,5.47
2017-08-08T18:29:00.571Z,5.40
2017-08-08T18:31:28.487Z,5.20
2017-08-08T18:33:56.027Z,5.23
2017-08-08T18:36:23.571Z,5.20
2017-08-08T18:38:51.474Z,4.70
2017-08-08T18:41:19.007Z,4.70
2017-08-08T18:43:46.514Z,4.77
2017-08-08T18:46:14.022Z,4.53
2017-08-08T18:48:41.549Z,4.77
2017-08-08T18:51:09.056Z,5.37
2017-08-08T18:53:36.572Z,4.60
2017-08-08T18:56:04.108Z,5.13
2017-08-08T18:58:31.635Z,5.07
2017-08-08T19:00:59.139Z,4.67
2017-08-08T19:03:26.631Z,4.70
2017-08-08T19:05:54.193Z,4.40
2017-08-08T19:08:22.100Z,4.77
2017-08-08T19:10:49.630Z,5.10
2017-08-08T19:13:17.545Z,4.80
2017-08-08T19:15:45.050Z,5.40
2017-08-08T19:18:12.584Z,5.40
2017-08-08T19:20:40.099Z,4.60
2017-08-08T19:23:07.611Z,4.90
2017-08-08T19:25:35.136Z,5.00
2017-08-08T19:28:02.638Z,4.73
2017-08-08T19:30:30.134Z,4.50
2017-08-08T19:32:57.670Z,6.47
2017-08-08T19:35:25.577Z,5.40
2017-08-08T19:37:53.091Z,5.93
2017-08-08T19:40:20.631Z,5.50
2017-08-08T19:42:48.146Z,5.63
2017-08-08T19:45:15.667Z,5.47
2017-08-08T19:47:43.276Z,5.90
2017-08-08T19:50:10.786Z,4.80
2017-08-08T19:52:38.299Z,5.20
2017-08-08T19:55:05.849Z,5.13
2017-08-08T19:57:33.354Z,6.27
2017-08-08T20:00:00.862Z,4.83
2017-08-08T20:02:28.394Z,5.07
2017-08-08T20:04:56.032Z,5.30
2017-08-08T20:07:23.551Z,5.03
2017-08-08T20:09:51.111Z,5.40
2017-08-08T20:12:18.633Z,9.77
2017-08-08T20:14:46.154Z,6.00
2017-08-08T20:17:13.683Z,6.30
2017-08-08T20:19:41.206Z,6.03
2017-08-08T20:22:08.751Z,5.80
2017-08-08T20:24:36.254Z,5.67
2017-08-08T20:27:04.152Z,5.20
2017-08-08T20:29:31.687Z,6.40
2017-08-08T20:31:59.588Z,4.60
2017-08-08T20:34:27.099Z,5.83
2017-08-08T20:36:54.617Z,5.30
2017-08-08T20:39:22.135Z,4.77
2017-08-08T20:41:50.063Z,5.50
2017-08-08T20:44:17.572Z,5.40
2017-08-08T20:46:45.078Z,5.10
2017-08-08T20:49:12.607Z,6.23
2017-08-08T20:51:40.119Z,6.43
2017-08-08T20:54:07.639Z,7.00
2017-08-08T20:56:35.171Z,5.80
2017-08-08T20:59:03.083Z,6.40
2017-08-08T21:01:30.594Z,5.57
2017-08-08T21:03:58.518Z,5.13
2017-08-08T21:06:26.023Z,5.50
2017-08-08T21:08:53.527Z,5.17
2017-08-08T21:11:21.054Z,4.23
2017-08-08T21:13:48.555Z,5.27
2017-08-08T21:16:16.088Z,5.50
2017-08-08T21:18:43.625Z,4.90
2017-08-08T21:21:11.138Z,5.27
2017-08-08T21:23:38.672Z,4.50
2017-08-08T21:26:06.202Z,4.90
2017-08-08T21:28:34.101Z,5.20
2017-08-08T21:31:01.611Z,5.53
2017-08-08T21:33:29.147Z,4.73
2017-08-08T21:35:56.678Z,5.20
2017-08-08T21:38:24.184Z,5.20
2017-08-08T21:40:51.719Z,5.33
2017-08-08T21:43:19.244Z,5.17
2017-08-08T21:45:46.765Z,5.40
2017-08-08T21:48:14.290Z,5.27
2017-08-08T21:50:41.799Z,5.40
2017-08-08T21:53:09.331Z,5.70
2017-08-08T21:55:36.871Z,5.03
2017-08-08T21:58:04.375Z,4.80
2017-08-08T22:00:31.894Z,4.50
2017-08-08T22:02:59.415Z,5.60
2017-08-08T22:05:27.324Z,5.03
2017-08-08T22:07:54.859Z,5.90
2017-08-08T22:10:22.384Z,5.80
2017-08-08T22:12:49.924Z,6.87
2017-08-08T22:15:17.451Z,6.37
2017-08-08T22:17:44.967Z,6.73
2017-08-08T22:20:12.504Z,7.10
2017-08-08T22:22:40.007Z,5.87
2017-08-08T22:25:07.520Z,5.90
2017-08-08T22:27:35.050Z,5.33
2017-08-08T22:30:02.563Z,5.40
2017-08-08T22:32:30.076Z,5.17
2017-08-08T22:34:57.607Z,4.83
2017-08-08T22:37:25.503Z,5.57
2017-08-08T22:39:53.007Z,4.90
2017-08-08T22:42:20.531Z,5.27
2017-08-08T22:44:48.035Z,4.87
2017-08-08T22:47:15.563Z,4.87
2017-08-08T22:49:43.806Z,4.87
2017-08-08T22:52:11.577Z,5.03
2017-08-08T22:54:39.121Z,5.70
2017-08-08T22:57:06.670Z,4.67
2017-08-08T22:59:34.761Z,5.07
2017-08-08T23:02:02.358Z,5.20
2017-08-08T23:04:29.882Z,5.20
2017-08-08T23:06:57.386Z,4.70
2017-08-08T23:09:25.433Z,5.10
2017-08-08T23:11:52.938Z,5.33
2017-08-08T23:14:20.438Z,5.27
2017-08-08T23:16:47.975Z,4.90
2017-08-08T23:19:15.887Z,4.90
2017-08-08T23:21:43.391Z,5.00
2017-08-08T23:24:10.927Z,5.87
2017-08-08T23:26:38.545Z,4.83
2017-08-08T23:29:06.469Z,5.27
2017-08-08T23:31:34.442Z,5.70
2017-08-08T23:34:01.959Z,5.37
2017-08-08T23:36:29.470Z,4.93
2017-08-08T23:38:57.011Z,5.40
2017-08-08T23:41:24.519Z,5.40
2017-08-08T23:43:52.422Z,5.90
2017-08-08T23:46:19.975Z,5.30
2017-08-08T23:48:47.478Z,5.70
2017-08-08T23:51:14.982Z,5.70
2017-08-08T23:53:42.510Z,5.37
2017-08-08T23:56:10.016Z,5.63
2017-08-08T23:58:37.531Z,4.63
